Time;durP1;ratioP1;P1;durP2;ratioP2;P2;SDS_P1;SDS_P2;PMS_P1;PMS_P2;Temp;Humidity;BMP_temperature;BMP_pressure;BME280_temperature;BME280_humidity;BME280_pressure;Samples;Min_cycle;Max_cycle;Signal;HPM_P1;HPM_P2
2022/01/02 00:00:14;;;;;;;3.92;1.45;;;11.80;99.90;;;;;;5032494;28;20033;-66
2022/01/02 00:02:41;;;;;;;3.35;1.48;;;11.90;99.90;;;;;;5038063;28;20029;-66
2022/01/02 00:05:15;;;;;;;5.88;1.58;;;11.90;99.90;;;;;;5036774;28;20039;-66
2022/01/02 00:08:05;;;;;;;2.20;1.02;;;11.90;99.90;;;;;;5036074;28;20030;-66
2022/01/02 00:10:36;;;;;;;2.17;0.98;;;11.90;99.90;;;;;;5033781;28;20493;-66
2022/01/02 00:13:04;;;;;;;4.07;1.50;;;11.80;99.90;;;;;;5035755;28;20033;-66
2022/01/02 00:15:30;;;;;;;5.90;1.98;;;11.80;99.90;;;;;;5035723;28;20080;-66
2022/01/02 00:18:05;;;;;;;5.00;1.77;;;11.90;99.90;;;;;;5038596;28;20021;-66
2022/01/02 00:20:36;;;;;;;4.05;1.50;;;11.90;99.90;;;;;;5038635;28;20033;-66
2022/01/02 00:23:06;;;;;;;4.13;1.30;;;11.90;99.90;;;;;;5037664;28;20032;-66
2022/01/02 00:25:37;;;;;;;2.70;1.15;;;11.90;99.90;;;;;;5036364;28;20017;-66
2022/01/02 00:28:02;;;;;;;8.90;1.40;;;11.90;99.90;;;;;;5034637;28;20036;-66
2022/01/02 00:30:29;;;;;;;3.63;1.25;;;12.00;99.90;;;;;;5041423;28;20119;-66
2022/01/02 00:32:55;;;;;;;4.75;1.83;;;12.10;99.90;;;;;;5038251;28;20021;-66
2022/01/02 00:35:22;;;;;;;3.50;1.15;;;12.10;99.90;;;;;;5035909;28;20129;-66
2022/01/02 00:37:47;;;;;;;7.35;2.10;;;12.10;99.90;;;;;;5042706;28;20481;-66
2022/01/02 00:40:15;;;;;;;3.58;1.38;;;12.10;99.90;;;;;;5036811;28;20029;-66
2022/01/02 00:42:42;;;;;;;4.03;1.50;;;12.10;99.90;;;;;;5039969;28;20047;-66
2022/01/02 00:45:19;;;;;;;4.45;1.70;;;12.10;99.90;;;;;;5040724;28;20026;-66
2022/01/02 00:48:07;;;;;;;5.30;1.88;;;12.10;99.90;;;;;;5039349;28;20036;-66
2022/01/02 00:50:46;;;;;;;3.60;1.40;;;12.10;99.90;;;;;;5034095;28;20026;-66
2022/01/02 00:53:16;;;;;;;8.35;1.70;;;12.10;99.90;;;;;;5037171;28;20029;-66
2022/01/02 00:55:45;;;;;;;5.65;1.45;;;12.20;99.90;;;;;;5037544;28;20128;-66
2022/01/02 00:58:14;;;;;;;2.47;1.23;;;12.20;99.90;;;;;;5039717;28;20091;-66
2022/01/02 01:00:48;;;;;;;3.45;1.33;;;12.20;99.90;;;;;;5044175;28;20017;-66
2022/01/02 01:03:39;;;;;;;5.63;0.90;;;12.20;99.90;;;;;;5042337;28;20481;-66
2022/01/02 01:06:09;;;;;;;5.18;1.60;;;12.30;99.90;;;;;;5039482;28;20053;-66
2022/01/02 01:08:36;;;;;;;1.63;0.85;;;12.40;99.90;;;;;;5033493;28;20044;-66
2022/01/02 01:11:08;;;;;;;2.47;1.05;;;12.40;99.90;;;;;;5036735;28;20075;-66
2022/01/02 01:13:34;;;;;;;4.28;1.40;;;12.40;99.90;;;;;;5040756;28;20543;-66
2022/01/02 01:16:00;;;;;;;4.30;1.27;;;12.40;99.90;;;;;;5042311;28;20017;-66
2022/01/02 01:18:26;;;;;;;3.08;1.23;;;12.40;99.90;;;;;;5042554;28;20021;-66
2022/01/02 01:20:53;;;;;;;3.03;1.25;;;12.50;99.90;;;;;;5042492;28;20040;-66
2022/01/02 01:23:19;;;;;;;6.97;1.58;;;12.60;99.90;;;;;;5039163;28;20116;-66
2022/01/02 01:25:47;;;;;;;2.45;1.10;;;12.70;99.90;;;;;;5036047;28;20108;-66
2022/01/02 01:28:15;;;;;;;2.97;1.20;;;12.60;99.90;;;;;;5036794;28;20017;-66
2022/01/02 01:30:40;;;;;;;3.22;1.23;;;12.70;99.90;;;;;;5038826;28;20059;-66
2022/01/02 01:33:06;;;;;;;2.40;1.05;;;12.60;99.90;;;;;;5035544;28;20030;-66
2022/01/02 01:35:31;;;;;;;3.53;1.05;;;12.60;99.90;;;;;;5041502;28;20108;-66
2022/01/02 01:37:57;;;;;;;2.92;1.15;;;12.70;99.90;;;;;;5033109;28;20516;-67
2022/01/02 01:40:23;;;;;;;3.50;1.33;;;12.80;99.90;;;;;;5043022;28;20044;-67
2022/01/02 01:42:59;;;;;;;2.95;1.13;;;12.80;99.90;;;;;;5035857;28;20033;-66
2022/01/02 01:45:28;;;;;;;5.03;1.55;;;12.80;99.90;;;;;;5038159;28;20389;-67
2022/01/02 01:47:59;;;;;;;2.53;1.10;;;12.80;99.90;;;;;;5037951;28;20436;-66
2022/01/02 01:50:32;;;;;;;4.05;1.50;;;12.80;99.90;;;;;;5036677;28;20044;-66
2022/01/02 01:52:58;;;;;;;4.68;1.65;;;12.90;99.90;;;;;;5037862;28;20029;-66
2022/01/02 01:55:24;;;;;;;6.00;1.25;;;12.90;99.90;;;;;;5040649;28;20104;-66
2022/01/02 01:57:52;;;;;;;2.78;1.23;;;12.90;99.90;;;;;;5039907;28;20104;-66
2022/01/02 02:00:20;;;;;;;3.15;1.13;;;12.80;99.90;;;;;;5036202;28;20021;-64
2022/01/02 02:02:46;;;;;;;5.25;1.58;;;12.90;99.90;;;;;;5039901;28;20112;-64
2022/01/02 02:05:12;;;;;;;3.90;1.30;;;12.90;99.90;;;;;;5036172;28;20068;-64
2022/01/02 02:07:40;;;;;;;4.90;1.30;;;12.90;99.90;;;;;;5038275;28;20366;-64
2022/01/02 02:10:12;;;;;;;6.25;1.15;;;12.90;99.90;;;;;;5037480;28;20267;-64
2022/01/02 02:12:39;;;;;;;5.05;1.40;;;12.80;99.90;;;;;;5038792;28;20515;-64
2022/01/02 02:15:07;;;;;;;5.40;1.63;;;12.80;99.90;;;;;;5034920;28;20029;-64
2022/01/02 02:17:33;;;;;;;3.90;1.38;;;12.80;99.90;;;;;;5042234;28;20389;-64
2022/01/02 02:20:14;;;;;;;3.80;1.25;;;12.80;99.90;;;;;;5037635;28;20026;-64
2022/01/02 02:22:41;;;;;;;3.67;1.17;;;12.80;99.90;;;;;;5034879;28;20079;-64
2022/01/02 02:25:10;;;;;;;4.40;1.48;;;12.80;99.90;;;;;;5042185;28;20017;-64
2022/01/02 02:27:35;;;;;;;2.33;1.02;;;12.80;99.90;;;;;;5021560;28;20033;-64
2022/01/02 02:30:02;;;;;;;5.55;1.20;;;12.80;99.90;;;;;;5040990;28;20045;-65
2022/01/02 02:32:28;;;;;;;2.53;0.98;;;12.80;99.90;;;;;;5038872;28;20026;-65
2022/01/02 02:34:53;;;;;;;8.10;1.52;;;12.70;99.90;;;;;;5036159;28;20025;-64
2022/01/02 02:37:19;;;;;;;5.28;1.40;;;12.80;99.90;;;;;;5042473;28;20022;-64
2022/01/02 02:39:44;;;;;;;1.73;1.00;;;12.80;99.90;;;;;;5039895;28;20021;-64
2022/01/02 02:42:23;;;;;;;3.13;1.25;;;12.80;99.90;;;;;;5036294;28;20079;-64
2022/01/02 02:44:57;;;;;;;2.97;1.20;;;12.80;99.90;;;;;;5039883;28;20132;-64
2022/01/02 02:50:07;;;;;;;4.20;1.48;;;12.80;99.90;;;;;;5037891;28;20048;-64
2022/01/02 02:52:43;;;;;;;4.75;1.40;;;12.80;99.90;;;;;;5033600;28;20477;-64
2022/01/02 02:55:09;;;;;;;3.42;1.25;;;12.80;99.90;;;;;;5038958;28;20499;-64
2022/01/02 02:57:35;;;;;;;2.83;1.00;;;12.80;99.90;;;;;;5034257;28;20021;-64
2022/01/02 03:00:02;;;;;;;3.40;1.55;;;12.80;99.90;;;;;;5037461;28;20519;-64
2022/01/02 03:02:27;;;;;;;3.38;1.30;;;12.80;99.90;;;;;;5038242;28;20075;-64
2022/01/02 03:04:53;;;;;;;4.65;1.48;;;12.80;99.90;;;;;;5037164;28;20657;-64
2022/01/02 03:07:18;;;;;;;5.28;1.33;;;12.80;99.90;;;;;;5040188;28;20021;-65
2022/01/02 03:09:49;;;;;;;2.75;0.93;;;12.80;99.90;;;;;;5036930;28;20499;-64
2022/01/02 03:12:15;;;;;;;4.25;1.17;;;12.90;99.90;;;;;;5034759;28;20367;-64
2022/01/02 03:14:41;;;;;;;4.30;1.27;;;12.80;99.90;;;;;;5037728;28;20033;-64
2022/01/02 03:17:07;;;;;;;4.22;1.38;;;12.80;99.90;;;;;;5038520;28;20025;-64
2022/01/02 03:19:33;;;;;;;4.38;1.48;;;12.80;99.90;;;;;;5037962;28;20064;-64
2022/01/02 03:22:00;;;;;;;5.18;1.35;;;12.80;99.90;;;;;;5038201;28;20032;-64
2022/01/02 03:24:25;;;;;;;5.88;1.40;;;12.80;99.90;;;;;;5039720;28;20032;-64
2022/01/02 03:26:51;;;;;;;3.38;1.23;;;12.90;99.90;;;;;;5038689;28;20507;-64
2022/01/02 03:29:16;;;;;;;4.50;1.42;;;12.80;99.90;;;;;;5039279;28;20552;-64
2022/01/02 03:31:42;;;;;;;4.30;1.20;;;12.90;99.90;;;;;;5038789;28;20555;-64
2022/01/02 03:34:08;;;;;;;3.72;1.25;;;12.80;99.90;;;;;;5036755;28;20021;-65
2022/01/02 03:36:33;;;;;;;2.88;0.98;;;12.90;99.90;;;;;;5038791;28;20104;-65
2022/01/02 03:38:59;;;;;;;7.82;1.58;;;12.90;99.90;;;;;;5038248;28;20040;-64
2022/01/02 03:41:25;;;;;;;5.60;1.48;;;12.80;99.90;;;;;;5040554;28;20025;-64
2022/01/02 03:43:50;;;;;;;3.85;1.38;;;12.80;99.90;;;;;;5036640;28;20047;-64
2022/01/02 03:46:16;;;;;;;6.75;1.27;;;12.80;99.90;;;;;;5035919;28;20030;-64
2022/01/02 03:48:41;;;;;;;5.47;1.38;;;12.80;99.90;;;;;;5039060;28;20421;-64
2022/01/02 03:51:07;;;;;;;4.38;1.27;;;12.80;99.90;;;;;;5036959;28;20079;-65
2022/01/02 03:53:34;;;;;;;4.75;1.55;;;12.80;99.90;;;;;;5038106;28;20066;-64
2022/01/02 03:55:59;;;;;;;3.35;1.13;;;12.70;99.90;;;;;;5039325;28;20101;-64
2022/01/02 03:58:25;;;;;;;4.18;1.23;;;12.70;99.90;;;;;;5035202;28;20112;-64
2022/01/02 04:00:51;;;;;;;3.45;1.40;;;12.60;99.90;;;;;;5041528;28;20108;-64
2022/01/02 04:03:16;;;;;;;5.60;1.25;;;12.60;99.90;;;;;;5038911;28;20092;-64
2022/01/02 04:05:44;;;;;;;4.32;1.20;;;12.60;99.90;;;;;;5043432;28;20483;-64
2022/01/02 04:08:09;;;;;;;3.63;1.45;;;12.60;99.90;;;;;;5042612;28;20087;-65
2022/01/02 04:10:35;;;;;;;2.40;0.98;;;12.50;99.90;;;;;;5041154;28;20104;-64
2022/01/02 04:13:01;;;;;;;8.05;1.27;;;12.40;99.90;;;;;;5042640;28;20017;-64
2022/01/02 04:15:26;;;;;;;3.83;1.48;;;12.30;99.90;;;;;;5042534;28;20024;-64
2022/01/02 04:17:52;;;;;;;5.45;1.67;;;12.20;99.90;;;;;;5040608;28;20017;-64
2022/01/02 04:20:17;;;;;;;11.73;1.60;;;12.10;99.90;;;;;;5041297;28;20472;-64
2022/01/02 04:22:44;;;;;;;4.55;1.38;;;12.00;99.90;;;;;;5038253;28;20033;-64
2022/01/02 04:25:11;;;;;;;5.57;1.48;;;12.00;99.90;;;;;;5039028;28;20106;-64
2022/01/02 04:27:37;;;;;;;7.40;1.50;;;11.90;99.90;;;;;;5042811;28;20337;-64
2022/01/02 04:30:05;;;;;;;3.63;1.20;;;11.80;99.90;;;;;;5036681;28;20551;-64
2022/01/02 04:32:31;;;;;;;6.25;1.65;;;11.80;99.90;;;;;;5037845;28;20032;-64
2022/01/02 04:34:56;;;;;;;4.18;1.45;;;11.80;99.90;;;;;;5042331;28;20100;-64
2022/01/02 04:37:22;;;;;;;10.30;1.48;;;11.90;99.90;;;;;;5043489;28;20388;-64
2022/01/02 04:39:48;;;;;;;2.92;1.35;;;11.90;99.90;;;;;;5035046;28;20136;-64
2022/01/02 04:42:13;;;;;;;4.10;1.50;;;11.90;99.90;;;;;;5039832;28;20374;-67
2022/01/02 04:44:39;;;;;;;9.98;1.67;;;11.90;99.90;;;;;;5044015;28;20052;-67
2022/01/02 04:47:05;;;;;;;5.22;1.55;;;11.90;99.90;;;;;;5041414;28;20141;-67
2022/01/02 04:49:30;;;;;;;3.05;1.45;;;11.90;99.90;;;;;;5042681;28;20021;-67
2022/01/02 04:51:56;;;;;;;3.53;1.15;;;11.90;99.90;;;;;;5039956;28;20022;-67
2022/01/02 04:54:22;;;;;;;2.85;1.13;;;11.90;99.90;;;;;;5041043;28;20017;-67
2022/01/02 04:56:48;;;;;;;3.33;1.27;;;11.90;99.90;;;;;;5039442;28;20021;-67
2022/01/02 04:59:14;;;;;;;1.70;0.90;;;11.90;99.90;;;;;;5042507;28;20048;-67
2022/01/02 05:01:39;;;;;;;4.38;1.55;;;11.90;99.90;;;;;;5038843;28;20047;-67
2022/01/02 05:04:05;;;;;;;4.75;1.35;;;12.00;99.90;;;;;;5035693;28;20029;-67
2022/01/02 05:06:31;;;;;;;3.97;1.35;;;11.90;99.90;;;;;;5040371;28;20032;-67
2022/01/02 05:08:56;;;;;;;4.68;1.08;;;12.00;99.90;;;;;;5031284;28;20378;-67
2022/01/02 05:11:22;;;;;;;6.00;1.67;;;12.00;99.90;;;;;;5039349;28;20155;-67
2022/01/02 05:13:48;;;;;;;3.55;1.00;;;12.00;99.90;;;;;;5041426;28;20033;-67
2022/01/02 05:16:13;;;;;;;2.97;1.23;;;11.90;99.90;;;;;;5038986;28;20045;-67
2022/01/02 05:18:39;;;;;;;3.58;1.23;;;11.90;99.90;;;;;;5041979;28;20119;-67
2022/01/02 05:21:04;;;;;;;4.75;1.67;;;12.00;99.90;;;;;;5036215;28;20025;-67
2022/01/02 05:23:30;;;;;;;4.03;1.58;;;11.90;99.90;;;;;;5038893;28;20552;-67
2022/01/02 05:25:57;;;;;;;7.45;1.65;;;11.90;99.90;;;;;;5039461;28;20552;-67
2022/01/02 05:28:23;;;;;;;9.60;1.38;;;12.00;99.90;;;;;;5038059;28;20021;-67
2022/01/02 05:30:49;;;;;;;4.45;1.85;;;12.00;99.90;;;;;;5037489;28;20128;-66
2022/01/02 05:33:15;;;;;;;5.80;2.88;;;12.00;99.90;;;;;;5039881;28;20105;-66
2022/01/02 05:35:41;;;;;;;1.08;0.68;;;12.00;99.90;;;;;;5035589;28;20108;-66
2022/01/02 05:38:06;;;;;;;4.05;1.40;;;12.00;99.90;;;;;;5033155;28;20017;-66
2022/01/02 05:40:33;;;;;;;2.50;1.58;;;11.90;99.90;;;;;;5035551;28;20022;-66
2022/01/02 05:43:00;;;;;;;4.07;1.38;;;11.90;99.90;;;;;;5035332;28;20025;-66
2022/01/02 05:45:26;;;;;;;3.30;1.35;;;11.90;99.90;;;;;;5036121;28;20533;-66
2022/01/02 05:47:51;;;;;;;2.45;1.10;;;11.90;99.90;;;;;;5038191;28;20104;-66
2022/01/02 05:50:17;;;;;;;2.30;1.02;;;11.90;99.90;;;;;;5027223;28;20102;-66
2022/01/02 05:52:43;;;;;;;2.25;0.90;;;;;;;;;;5037359;28;20631;-66
2022/01/02 05:55:09;;;;;;;2.70;1.05;;;11.90;99.90;;;;;;5031137;28;20025;-66
2022/01/02 05:57:34;;;;;;;6.18;1.98;;;11.90;99.90;;;;;;5036073;28;20520;-66
2022/01/02 06:00:00;;;;;;;3.78;1.20;;;11.90;99.90;;;;;;5038357;28;20148;-66
2022/01/02 06:02:26;;;;;;;2.95;1.13;;;11.80;99.90;;;;;;5038905;28;20026;-66
2022/01/02 06:04:51;;;;;;;3.33;1.55;;;11.80;99.90;;;;;;5038437;28;20152;-66
2022/01/02 06:07:17;;;;;;;4.63;1.30;;;11.80;99.90;;;;;;5032776;28;20025;-66
2022/01/02 06:09:42;;;;;;;8.38;1.85;;;11.80;99.90;;;;;;5039412;28;20112;-66
2022/01/02 06:12:08;;;;;;;6.45;1.55;;;11.70;99.90;;;;;;5040147;28;20384;-66
2022/01/02 06:14:34;;;;;;;5.13;1.30;;;11.70;99.90;;;;;;5040466;28;20604;-66
2022/01/02 06:16:59;;;;;;;3.35;1.52;;;11.70;99.90;;;;;;5038075;28;20468;-66
2022/01/02 06:19:25;;;;;;;6.70;2.10;;;11.70;99.90;;;;;;5037595;28;20029;-66
2022/01/02 06:21:51;;;;;;;3.83;1.65;;;11.70;99.90;;;;;;5034312;28;20463;-66
2022/01/02 06:24:17;;;;;;;5.00;1.65;;;11.70;99.90;;;;;;5034543;28;20033;-66
2022/01/02 06:26:42;;;;;;;5.32;1.73;;;11.60;99.90;;;;;;5032108;28;20489;-66
2022/01/02 06:29:08;;;;;;;8.68;1.85;;;11.50;99.90;;;;;;5035733;28;20022;-66
2022/01/02 06:31:34;;;;;;;4.18;1.40;;;11.50;99.90;;;;;;5036879;28;20065;-66
2022/01/02 06:33:59;;;;;;;4.85;1.52;;;11.50;99.90;;;;;;5037543;28;20029;-66
2022/01/02 06:36:25;;;;;;;3.88;1.48;;;11.40;99.90;;;;;;5040650;28;20032;-66
2022/01/02 06:38:51;;;;;;;5.00;1.55;;;11.40;99.90;;;;;;5041748;28;20057;-66
2022/01/02 06:41:17;;;;;;;7.97;2.47;;;11.40;99.90;;;;;;5040563;28;20066;-66
2022/01/02 06:43:43;;;;;;;6.85;2.25;;;11.30;99.90;;;;;;5036641;28;20027;-66
2022/01/02 06:46:09;;;;;;;4.13;1.20;;;11.30;99.90;;;;;;5038992;28;20030;-66
2022/01/02 06:48:34;;;;;;;4.80;1.83;;;11.30;99.90;;;;;;5038453;28;20083;-66
2022/01/02 06:51:00;;;;;;;6.22;1.75;;;11.30;99.90;;;;;;5039601;28;20033;-66
2022/01/02 06:53:26;;;;;;;6.80;2.35;;;11.30;99.90;;;;;;5039157;28;20111;-66
2022/01/02 06:55:51;;;;;;;4.07;1.73;;;11.30;99.90;;;;;;5040086;28;20021;-66
2022/01/02 06:58:17;;;;;;;3.78;1.40;;;11.30;99.90;;;;;;5039575;28;20026;-66
2022/01/02 07:00:43;;;;;;;13.18;1.60;;;11.30;99.90;;;;;;5037886;28;20488;-66
2022/01/02 07:03:09;;;;;;;6.93;1.92;;;11.20;99.90;;;;;;5037010;28;20052;-66
2022/01/02 07:05:35;;;;;;;5.93;2.70;;;11.20;99.90;;;;;;5034019;28;20494;-66
2022/01/02 07:08:01;;;;;;;10.68;2.05;;;11.20;99.90;;;;;;5037081;28;20112;-66
2022/01/02 07:10:27;;;;;;;4.75;1.52;;;11.20;99.90;;;;;;5039082;28;20109;-66
2022/01/02 07:12:52;;;;;;;4.70;1.70;;;11.20;99.90;;;;;;5031330;28;20021;-66
2022/01/02 07:15:18;;;;;;;5.15;1.67;;;11.30;99.90;;;;;;5038787;28;20029;-66
2022/01/02 07:17:44;;;;;;;3.85;1.55;;;11.30;99.90;;;;;;5036315;28;20031;-66
2022/01/02 07:20:10;;;;;;;12.98;2.13;;;11.30;99.90;;;;;;5034733;28;20493;-67
2022/01/02 07:22:36;;;;;;;3.40;1.25;;;11.30;99.90;;;;;;5037986;28;20085;-67
2022/01/02 07:25:04;;;;;;;6.85;1.80;;;11.40;99.90;;;;;;5039645;28;20421;-67
2022/01/02 07:27:29;;;;;;;4.25;1.65;;;11.40;99.90;;;;;;5039023;28;20778;-66
2022/01/02 07:29:56;;;;;;;5.97;2.08;;;11.40;99.90;;;;;;5039716;28;20041;-66
2022/01/02 07:32:22;;;;;;;5.43;1.52;;;11.40;99.90;;;;;;5038650;28;20079;-66
2022/01/02 07:34:48;;;;;;;2.58;1.30;;;11.40;99.90;;;;;;5034292;28;20049;-66
2022/01/02 07:37:14;;;;;;;5.63;2.08;;;11.30;99.90;;;;;;5038482;28;20515;-66
2022/01/02 07:39:39;;;;;;;7.32;1.63;;;11.30;99.90;;;;;;5037686;28;20025;-66
2022/01/02 07:42:05;;;;;;;6.32;1.58;;;11.20;99.90;;;;;;5030142;28;20079;-66
2022/01/02 07:44:31;;;;;;;3.00;1.45;;;11.20;99.90;;;;;;5037314;28;20026;-67
2022/01/02 07:46:57;;;;;;;7.60;1.98;;;11.20;99.90;;;;;;5033181;28;20028;-67
2022/01/02 07:49:22;;;;;;;4.13;1.48;;;11.20;99.90;;;;;;5034608;28;20041;-66
2022/01/02 07:51:48;;;;;;;7.28;1.98;;;11.10;99.90;;;;;;5035474;28;21502;-66
2022/01/02 07:54:14;;;;;;;3.10;1.15;;;11.20;99.90;;;;;;5035446;28;20072;-67
2022/01/02 07:56:40;;;;;;;3.55;1.50;;;11.20;99.90;;;;;;5040757;28;20405;-67
2022/01/02 07:59:06;;;;;;;3.58;1.50;;;11.20;99.90;;;;;;5039779;28;20025;-67
2022/01/02 08:01:32;;;;;;;3.75;1.02;;;11.20;99.90;;;;;;5037626;28;20067;-68
2022/01/02 08:03:57;;;;;;;2.78;1.23;;;11.30;99.90;;;;;;5036322;28;20048;-68
2022/01/02 08:06:23;;;;;;;4.43;2.10;;;11.30;99.90;;;;;;5034330;28;20481;-67
2022/01/02 08:08:49;;;;;;;0.98;0.60;;;11.30;99.90;;;;;;5034060;28;20473;-68
2022/01/02 08:11:17;;;;;;;3.22;1.10;;;11.30;99.90;;;;;;5030450;28;20022;-68
2022/01/02 08:13:44;;;;;;;3.35;1.30;;;11.30;99.90;;;;;;5025274;28;20612;-67
2022/01/02 08:16:11;;;;;;;2.30;1.13;;;11.30;99.90;;;;;;5029210;28;20017;-68
2022/01/02 08:18:36;;;;;;;4.30;1.33;;;11.30;99.90;;;;;;5032661;28;20025;-68
2022/01/02 08:21:02;;;;;;;2.83;1.13;;;11.30;99.90;;;;;;5035473;28;20033;-68
2022/01/02 08:23:28;;;;;;;2.35;1.05;;;11.30;99.90;;;;;;5036962;28;20029;-69
2022/01/02 08:25:53;;;;;;;7.50;1.60;;;11.30;99.90;;;;;;5034083;28;20033;-69
2022/01/02 08:28:19;;;;;;;4.35;1.58;;;11.30;99.90;;;;;;5036324;28;20028;-69
2022/01/02 08:30:47;;;;;;;20.52;1.30;;;11.30;99.90;;;;;;5033992;28;20053;-68
2022/01/02 08:33:13;;;;;;;5.10;1.73;;;11.40;99.90;;;;;;5033970;28;20507;-68
2022/01/02 08:35:39;;;;;;;3.63;1.42;;;11.50;99.90;;;;;;5029637;28;20021;-68
2022/01/02 08:38:04;;;;;;;3.55;1.25;;;11.40;99.90;;;;;;5032222;28;20071;-68
2022/01/02 08:40:30;;;;;;;2.40;1.08;;;11.40;99.90;;;;;;5029679;28;20083;-68
2022/01/02 08:42:56;;;;;;;3.60;1.35;;;11.40;99.90;;;;;;5030200;28;20026;-68
2022/01/02 08:45:23;;;;;;;6.28;2.28;;;11.50;99.90;;;;;;5031734;28;20116;-68
2022/01/02 08:47:49;;;;;;;1.55;0.90;;;11.50;99.90;;;;;;5031723;28;20029;-68
2022/01/02 08:50:14;;;;;;;4.40;1.25;;;11.60;99.90;;;;;;5031723;28;20386;-68
2022/01/02 08:52:40;;;;;;;5.05;2.20;;;11.60;99.90;;;;;;5030862;28;20108;-68
2022/01/02 08:55:06;;;;;;;7.65;1.88;;;11.60;99.90;;;;;;5022345;28;20108;-67
2022/01/02 08:57:32;;;;;;;2.63;1.30;;;11.70;99.90;;;;;;5032821;28;20025;-67
2022/01/02 08:59:57;;;;;;;2.05;1.10;;;11.70;99.90;;;;;;5031184;28;20512;-69
2022/01/02 09:02:23;;;;;;;3.30;1.10;;;11.70;99.90;;;;;;5034562;28;20104;-68
2022/01/02 09:04:49;;;;;;;7.88;2.15;;;11.60;99.90;;;;;;5034987;28;20029;-68
2022/01/02 09:07:14;;;;;;;3.08;0.93;;;11.50;99.90;;;;;;5033774;28;20017;-68
2022/01/02 09:09:40;;;;;;;3.92;1.10;;;11.50;99.90;;;;;;5031849;28;20057;-68
2022/01/02 09:12:07;;;;;;;2.65;1.10;;;11.50;99.90;;;;;;5029288;28;20508;-68
2022/01/02 09:14:33;;;;;;;1.65;0.90;;;11.50;99.90;;;;;;5030675;28;20022;-68
2022/01/02 09:16:59;;;;;;;4.03;1.25;;;11.60;99.90;;;;;;5028697;28;20072;-69
2022/01/02 09:19:25;;;;;;;3.38;1.30;;;11.70;99.90;;;;;;5028528;28;21367;-68
2022/01/02 09:21:50;;;;;;;2.85;1.33;;;11.70;99.90;;;;;;5027288;28;20021;-68
2022/01/02 09:24:16;;;;;;;1.27;0.80;;;11.70;99.90;;;;;;5032329;28;20025;-68
2022/01/02 09:26:42;;;;;;;2.33;1.10;;;11.90;99.90;;;;;;5037695;28;20370;-69
2022/01/02 09:29:07;;;;;;;3.35;1.20;;;11.90;99.90;;;;;;5028782;28;20029;-68
2022/01/02 09:31:33;;;;;;;2.25;0.88;;;11.90;99.90;;;;;;5030565;28;20071;-69
2022/01/02 09:33:59;;;;;;;3.33;1.00;;;11.90;99.90;;;;;;5033250;28;20048;-68
2022/01/02 09:36:25;;;;;;;1.23;0.93;;;11.90;99.90;;;;;;5032989;28;20033;-67
2022/01/02 09:38:51;;;;;;;2.35;1.00;;;11.90;99.90;;;;;;5032068;28;20481;-67
2022/01/02 09:41:19;;;;;;;2.70;1.00;;;11.90;99.90;;;;;;5030767;28;20028;-68
2022/01/02 09:43:47;;;;;;;3.42;1.35;;;12.10;99.90;;;;;;5032378;28;20498;-68
2022/01/02 09:46:23;;;;;;;2.05;1.38;;;12.20;99.90;;;;;;5030864;28;20040;-68
2022/01/02 09:48:51;;;;;;;4.68;1.35;;;12.20;99.90;;;;;;5033519;28;20389;-66
2022/01/02 09:51:18;;;;;;;2.03;0.90;;;12.20;99.90;;;;;;5032840;28;20041;-66
2022/01/02 09:53:47;;;;;;;0.70;0.65;;;12.10;99.90;;;;;;5033271;28;20032;-68
2022/01/02 09:56:16;;;;;;;2.17;1.05;;;12.10;99.90;;;;;;5035904;28;20095;-66
2022/01/02 09:58:44;;;;;;;2.33;1.17;;;12.00;99.90;;;;;;5033393;28;20528;-66
2022/01/02 10:01:18;;;;;;;5.72;1.30;;;12.20;99.90;;;;;;5039423;28;20014;-66
2022/01/02 10:03:46;;;;;;;2.03;0.90;;;12.20;99.90;;;;;;5033802;28;20393;-66
2022/01/02 10:06:13;;;;;;;4.95;0.90;;;12.30;99.90;;;;;;5031149;28;20449;-67
2022/01/02 10:08:39;;;;;;;2.50;0.95;;;12.20;99.90;;;;;;5038614;28;20052;-67
2022/01/02 10:11:12;;;;;;;1.77;1.00;;;12.30;99.90;;;;;;5034687;28;20025;-67
2022/01/02 10:13:42;;;;;;;4.45;1.42;;;12.30;99.90;;;;;;5029746;28;20026;-68
2022/01/02 10:16:31;;;;;;;4.20;1.15;;;12.20;99.90;;;;;;5038468;28;20075;-67
2022/01/02 10:18:58;;;;;;;2.92;1.00;;;12.10;99.90;;;;;;5026885;28;20049;-67
2022/01/02 10:21:32;;;;;;;7.90;1.42;;;12.00;99.90;;;;;;5030050;28;20489;-67
2022/01/02 10:24:21;;;;;;;2.25;0.95;;;11.70;99.90;;;;;;5028070;28;20067;-67
2022/01/02 10:27:19;;;;;;;2.35;1.02;;;11.70;99.90;;;;;;5030056;28;20024;-67
2022/01/02 10:29:51;;;;;;;2.75;1.10;;;11.80;99.90;;;;;;5031396;28;20464;-66
2022/01/02 10:32:35;;;;;;;2.67;1.08;;;11.90;99.90;;;;;;5029461;28;20039;-66
2022/01/02 10:35:18;;;;;;;3.65;1.50;;;12.10;99.90;;;;;;5032393;28;20060;-66
2022/01/02 10:37:55;;;;;;;2.83;1.10;;;12.00;99.90;;;;;;5027363;28;20017;-66
2022/01/02 10:40:40;;;;;;;1.85;1.05;;;11.90;99.90;;;;;;5029867;28;20034;-64
2022/01/02 10:43:07;;;;;;;3.85;1.30;;;11.90;99.90;;;;;;5030539;28;20025;-64
2022/01/02 10:45:33;;;;;;;2.97;1.13;;;11.70;99.90;;;;;;5031125;28;20053;-64
2022/01/02 10:47:58;;;;;;;5.05;1.30;;;11.70;99.90;;;;;;5028049;28;20103;-66
2022/01/02 10:50:24;;;;;;;2.13;1.02;;;11.90;99.90;;;;;;5032812;28;20032;-66
2022/01/02 10:52:49;;;;;;;4.22;1.63;;;12.00;99.90;;;;;;5033426;28;20486;-66
2022/01/02 10:55:28;;;;;;;2.30;1.17;;;11.90;99.90;;;;;;5029208;28;20017;-68
2022/01/02 10:57:56;;;;;;;3.30;1.17;;;11.80;99.90;;;;;;5029100;28;20025;-67
2022/01/02 11:00:25;;;;;;;4.65;1.45;;;11.70;99.90;;;;;;5031335;28;20455;-66
2022/01/02 11:02:51;;;;;;;5.82;2.03;;;11.70;99.90;;;;;;5032727;28;20029;-65
2022/01/02 11:05:20;;;;;;;5.75;1.63;;;11.70;99.90;;;;;;5028987;28;20535;-65
2022/01/02 11:07:51;;;;;;;5.03;1.30;;;11.90;99.90;;;;;;5033782;28;20017;-65
2022/01/02 11:10:20;;;;;;;4.40;1.35;;;11.90;99.90;;;;;;5029563;28;20021;-65
2022/01/02 11:12:48;;;;;;;4.15;1.20;;;12.00;99.90;;;;;;5028946;28;20552;-64
2022/01/02 11:15:16;;;;;;;5.32;1.45;;;12.20;99.90;;;;;;5031694;28;20033;-65
2022/01/02 11:17:42;;;;;;;1.52;1.13;;;12.30;99.90;;;;;;5037312;28;20026;-65
2022/01/02 11:20:17;;;;;;;2.15;1.00;;;12.40;99.90;;;;;;5032629;28;20021;-65
2022/01/02 11:23:20;;;;;;;4.60;1.55;;;12.40;99.90;;;;;;5033705;28;20029;-68
2022/01/02 11:26:01;;;;;;;5.00;2.00;;;12.40;99.90;;;;;;5034093;28;20028;-64
2022/01/02 11:28:38;;;;;;;;;;;12.40;99.90;;;;;;5030166;28;20061;-64
2022/01/02 11:31:06;;;;;;;4.00;1.27;;;12.40;99.90;;;;;;5032005;28;19932;-64
2022/01/02 11:33:40;;;;;;;6.43;1.50;;;12.40;99.90;;;;;;5034596;28;20033;-64
2022/01/02 11:36:34;;;;;;;2.58;1.10;;;12.40;99.90;;;;;;5038082;28;20119;-64
2022/01/02 11:38:59;;;;;;;6.63;1.60;;;12.40;99.90;;;;;;5029863;28;20024;-64
2022/01/02 11:41:40;;;;;;;3.72;1.27;;;12.60;99.90;;;;;;5034411;28;20025;-65
2022/01/02 11:44:08;;;;;;;;;;;12.80;99.90;;;;;;5037487;28;20116;-64
2022/01/02 11:46:56;;;;;;;4.03;1.45;;;13.00;99.90;;;;;;5037425;28;19924;-64
2022/01/02 11:49:43;;;;;;;3.55;1.20;;;13.10;99.90;;;;;;5035416;28;20095;-64
2022/01/02 11:52:23;;;;;;;5.70;1.98;;;12.80;99.90;;;;;;5032537;28;20036;-63
2022/01/02 11:54:51;;;;;;;6.47;1.73;;;12.80;99.90;;;;;;5037862;28;20030;-63
2022/01/02 11:57:20;;;;;;;3.10;1.42;;;13.00;99.90;;;;;;5030165;28;20018;-63
2022/01/02 11:59:46;;;;;;;4.25;1.38;;;13.10;99.90;;;;;;5034978;28;20533;-63
2022/01/02 12:02:26;;;;;;;8.05;2.22;;;13.10;99.90;;;;;;5036981;28;20033;-63
2022/01/02 12:07:40;;;;;;;4.80;1.17;;;13.00;99.90;;;;;;5031618;28;20025;-63
2022/01/02 12:10:21;;;;;;;3.25;1.25;;;13.10;99.90;;;;;;5029237;28;20022;-63
2022/01/02 12:13:18;;;;;;;6.15;2.13;;;13.10;99.90;;;;;;5034027;28;20064;-63
2022/01/02 12:15:44;;;;;;;4.15;1.38;;;13.10;99.90;;;;;;5032311;28;20017;-69
2022/01/02 12:18:33;;;;;;;10.95;1.88;;;13.00;99.90;;;;;;5025600;28;20064;-69
2022/01/02 12:21:04;;;;;;;3.70;1.30;;;12.90;99.90;;;;;;5029300;28;20389;-69
2022/01/02 12:26:04;;;;;;;5.20;1.85;;;13.90;99.90;;;;;;5036401;28;20061;-69
2022/01/02 12:28:58;;;;;;;5.22;1.50;;;13.70;99.90;;;;;;5032592;28;20485;-70
2022/01/02 12:31:30;;;;;;;10.68;2.05;;;13.40;99.90;;;;;;5026860;28;20417;-69
2022/01/02 12:34:22;;;;;;;5.00;1.17;;;13.20;99.90;;;;;;5029682;28;20497;-69
2022/01/02 12:36:52;;;;;;;3.65;1.30;;;13.00;99.90;;;;;;5028829;28;20029;-69
2022/01/02 12:39:25;;;;;;;3.25;1.42;;;13.00;99.90;;;;;;5025370;28;20091;-69
2022/01/02 12:41:51;;;;;;;4.55;1.50;;;13.00;99.90;;;;;;5022962;28;20033;-69
2022/01/02 12:44:29;;;;;;;3.17;1.35;;;13.00;99.90;;;;;;5022910;28;20504;-69
2022/01/02 12:46:57;;;;;;;2.55;1.08;;;12.90;99.90;;;;;;5018644;28;20834;-64
2022/01/02 12:49:26;;;;;;;7.70;1.77;;;12.90;99.90;;;;;;5025962;28;20152;-64
2022/01/02 12:51:57;;;;;;;1.13;0.82;;;12.80;99.90;;;;;;5028333;28;20025;-64
2022/01/02 12:54:29;;;;;;;5.07;1.60;;;12.80;99.90;;;;;;5022110;28;20040;-63
2022/01/02 12:56:58;;;;;;;5.47;1.58;;;12.80;99.90;;;;;;5025973;28;20025;-64
2022/01/02 12:59:35;;;;;;;3.80;1.65;;;12.80;99.90;;;;;;5024304;28;20548;-64
2022/01/02 13:02:05;;;;;;;3.50;1.08;;;12.80;99.90;;;;;;5025567;28;20119;-64